DAL5500 KLAX-KORD
Flight info
| Callsign | DAL5500 |
|---|---|
| Flight time | N/A |
| Altitude | 39000 |
| Route | ORCKA5 LAS BAWER HVE J60 DBL LBF FOD MYRRS FYTTE7 |
| Aircraft | B772/H-SDE2E3FGHIJ5LORVWXY/LB1D1 |
Departure
| Time | 2026-04-22 01:28 |
|---|---|
| Airport | Los Angeles International Airport (KLAX) |
Arrival
| Time | N/A |
|---|---|
| Airport | Chicago O'Hare International Airport (KORD) |
| Time | Latitude | Longitude | Altitude | Speed | Heading |
|---|---|---|---|---|---|
| 2026-04-22 01:10 | 33.94403 | -118.41132 | 128 ft | 0 kts | 83° |
| 2026-04-22 01:16 | 33.94403 | -118.41137 | 128 ft | 2 kts | 83° |
| 2026-04-22 01:16 | 33.94401 | -118.41155 | 128 ft | 2 kts | 83° |
| 2026-04-22 01:16 | 33.94399 | -118.41174 | 128 ft | 2 kts | 83° |
| 2026-04-22 01:17 | 33.94398 | -118.41190 | 128 ft | 2 kts | 83° |
| 2026-04-22 01:17 | 33.94396 | -118.41208 | 128 ft | 2 kts | 83° |
| 2026-04-22 01:17 | 33.94394 | -118.41225 | 128 ft | 2 kts | 89° |
| 2026-04-22 01:17 | 33.94399 | -118.41240 | 128 ft | 2 kts | 146° |
| 2026-04-22 01:18 | 33.94408 | -118.41245 | 128 ft | 1 kts | 175° |
| 2026-04-22 01:18 | 33.94411 | -118.41245 | 128 ft | 0 kts | 174° |
| 2026-04-22 01:20 | 33.94391 | -118.41242 | 128 ft | 6 kts | 173° |
| 2026-04-22 01:20 | 33.94328 | -118.41232 | 128 ft | 11 kts | 173° |
| 2026-04-22 01:20 | 33.94232 | -118.41218 | 130 ft | 15 kts | 174° |
| 2026-04-22 01:21 | 33.94115 | -118.41202 | 130 ft | 18 kts | 174° |
| 2026-04-22 01:21 | 33.93984 | -118.41187 | 131 ft | 19 kts | 175° |
| 2026-04-22 01:21 | 33.93853 | -118.41163 | 134 ft | 19 kts | 172° |
| 2026-04-22 01:21 | 33.93774 | -118.41110 | 134 ft | 12 kts | 99° |
| 2026-04-22 01:22 | 33.93776 | -118.41003 | 134 ft | 13 kts | 84° |
| 2026-04-22 01:22 | 33.93789 | -118.40882 | 134 ft | 15 kts | 82° |
| 2026-04-22 01:22 | 33.93804 | -118.40740 | 134 ft | 18 kts | 84° |
| 2026-04-22 01:22 | 33.93819 | -118.40569 | 132 ft | 24 kts | 82° |
| 2026-04-22 01:23 | 33.93845 | -118.40325 | 128 ft | 33 kts | 83° |
| 2026-04-22 01:23 | 33.93874 | -118.40037 | 125 ft | 35 kts | 83° |
| 2026-04-22 01:23 | 33.93906 | -118.39742 | 120 ft | 33 kts | 84° |
| 2026-04-22 01:23 | 33.93936 | -118.39465 | 117 ft | 34 kts | 83° |
| 2026-04-22 01:24 | 33.93964 | -118.39172 | 115 ft | 35 kts | 83° |
| 2026-04-22 01:24 | 33.93994 | -118.38869 | 111 ft | 36 kts | 83° |
| 2026-04-22 01:24 | 33.94024 | -118.38573 | 111 ft | 30 kts | 83° |
| 2026-04-22 01:24 | 33.94049 | -118.38330 | 108 ft | 25 kts | 82° |
| 2026-04-22 01:25 | 33.94072 | -118.38133 | 108 ft | 18 kts | 82° |
| 2026-04-22 01:25 | 33.94078 | -118.38065 | 108 ft | 2 kts | 86° |
| 2026-04-22 01:25 | 33.94075 | -118.38046 | 108 ft | 0 kts | 118° |
| 2026-04-22 01:25 | 33.94075 | -118.38045 | 108 ft | 0 kts | 118° |
| 2026-04-22 01:26 | 33.94070 | -118.38037 | 108 ft | 3 kts | 127° |
| 2026-04-22 01:26 | 33.94033 | -118.38011 | 108 ft | 8 kts | 165° |
| 2026-04-22 01:27 | 33.93990 | -118.38023 | 108 ft | 5 kts | 239° |
| 2026-04-22 01:27 | 33.93976 | -118.38097 | 108 ft | 12 kts | 262° |
| 2026-04-22 01:27 | 33.93947 | -118.38399 | 109 ft | 75 kts | 262° |
| 2026-04-22 01:27 | 33.93845 | -118.39363 | 146 ft | 150 kts | 262° |
| 2026-04-22 01:28 | 33.93702 | -118.40705 | 732 ft | 174 kts | 263° |
| 2026-04-22 01:28 | 33.93552 | -118.42097 | 1869 ft | 163 kts | 263° |
| 2026-04-22 01:28 | 33.93424 | -118.43373 | 2630 ft | 155 kts | 264° |
| 2026-04-22 01:28 | 33.93292 | -118.44721 | 2962 ft | 174 kts | 264° |
| 2026-04-22 01:29 | 33.93143 | -118.46246 | 3012 ft | 195 kts | 263° |
| 2026-04-22 01:29 | 33.92800 | -118.47857 | 3533 ft | 201 kts | 251° |
| 2026-04-22 01:29 | 33.92290 | -118.49449 | 4073 ft | 209 kts | 250° |
| 2026-04-22 01:29 | 33.91726 | -118.51113 | 4517 ft | 223 kts | 249° |
| 2026-04-22 01:30 | 33.91125 | -118.52849 | 4958 ft | 230 kts | 248° |
| 2026-04-22 01:30 | 33.90476 | -118.54627 | 5643 ft | 231 kts | 242° |
| 2026-04-22 01:30 | 33.89411 | -118.56016 | 6399 ft | 231 kts | 217° |
| 2026-04-22 01:30 | 33.87890 | -118.56721 | 7049 ft | 240 kts | 192° |
| 2026-04-22 01:31 | 33.86211 | -118.56475 | 7639 ft | 253 kts | 163° |
| 2026-04-22 01:31 | 33.84772 | -118.55193 | 8250 ft | 268 kts | 132° |
| 2026-04-22 01:31 | 33.84010 | -118.53138 | 8900 ft | 281 kts | 101° |
| 2026-04-22 01:31 | 33.84220 | -118.50819 | 9505 ft | 289 kts | 66° |
| 2026-04-22 01:32 | 33.85430 | -118.48911 | 10035 ft | 290 kts | 33° |
| 2026-04-22 01:32 | 33.87144 | -118.47646 | 10670 ft | 290 kts | 24° |
| 2026-04-22 01:32 | 33.88917 | -118.46487 | 11398 ft | 290 kts | 23° |
| 2026-04-22 01:32 | 33.90722 | -118.45321 | 11927 ft | 299 kts | 23° |
| 2026-04-22 01:33 | 33.92565 | -118.43984 | 12160 ft | 325 kts | 36° |
| 2026-04-22 01:33 | 33.94137 | -118.41904 | 12380 ft | 350 kts | 52° |
| 2026-04-22 01:33 | 33.95571 | -118.39386 | 12864 ft | 373 kts | 54° |
| 2026-04-22 01:33 | 33.97056 | -118.36728 | 13502 ft | 391 kts | 54° |
| 2026-04-22 01:34 | 33.98616 | -118.33952 | 14050 ft | 411 kts | 54° |
| 2026-04-22 01:34 | 34.00242 | -118.31066 | 14669 ft | 426 kts | 54° |
| 2026-04-22 01:34 | 34.01929 | -118.28078 | 15169 ft | 438 kts | 54° |
| 2026-04-22 01:34 | 34.03669 | -118.25002 | 15591 ft | 450 kts | 54° |
| 2026-04-22 01:35 | 34.05429 | -118.21891 | 16259 ft | 454 kts | 54° |
| 2026-04-22 01:35 | 34.07209 | -118.18742 | 17025 ft | 456 kts | 54° |
| 2026-04-22 01:35 | 34.09010 | -118.15556 | 17656 ft | 461 kts | 54° |
| 2026-04-22 01:35 | 34.10826 | -118.12341 | 18203 ft | 468 kts | 54° |
| 2026-04-22 01:36 | 34.12684 | -118.09049 | 18723 ft | 475 kts | 54° |
| 2026-04-22 01:36 | 34.14542 | -118.05753 | 19402 ft | 478 kts | 54° |
| 2026-04-22 01:36 | 34.16394 | -118.02464 | 20070 ft | 480 kts | 54° |
| 2026-04-22 01:36 | 34.18293 | -117.99089 | 20648 ft | 486 kts | 53° |
| 2026-04-22 01:37 | 34.20193 | -117.95710 | 21153 ft | 492 kts | 54° |
| 2026-04-22 01:37 | 34.22121 | -117.92279 | 21706 ft | 497 kts | 54° |
| 2026-04-22 01:37 | 34.24044 | -117.88853 | 22306 ft | 500 kts | 54° |
| 2026-04-22 01:37 | 34.26009 | -117.85348 | 22916 ft | 503 kts | 54° |
| 2026-04-22 01:38 | 34.27982 | -117.81827 | 23348 ft | 510 kts | 54° |
| 2026-04-22 01:38 | 34.29980 | -117.78256 | 23932 ft | 513 kts | 54° |
| 2026-04-22 01:38 | 34.31953 | -117.74726 | 24534 ft | 515 kts | 54° |
| 2026-04-22 01:38 | 34.33977 | -117.71103 | 25030 ft | 520 kts | 54° |
| 2026-04-22 01:39 | 34.36011 | -117.67490 | 25491 ft | 524 kts | 52° |
| 2026-04-22 01:39 | 34.38145 | -117.63908 | 25956 ft | 529 kts | 52° |
| 2026-04-22 01:39 | 34.40327 | -117.60280 | 26459 ft | 532 kts | 52° |
| 2026-04-22 01:39 | 34.42485 | -117.56684 | 26961 ft | 535 kts | 51° |
| 2026-04-22 01:40 | 34.44675 | -117.53026 | 27379 ft | 540 kts | 52° |
| 2026-04-22 01:40 | 34.46890 | -117.49319 | 27780 ft | 545 kts | 52° |
| 2026-04-22 01:40 | 34.49130 | -117.45562 | 28270 ft | 548 kts | 52° |
| 2026-04-22 01:40 | 34.51351 | -117.41828 | 28773 ft | 550 kts | 51° |
| 2026-04-22 01:41 | 34.53580 | -117.38078 | 29191 ft | 554 kts | 52° |
| 2026-04-22 01:41 | 34.55837 | -117.34277 | 29631 ft | 557 kts | 53° |
| 2026-04-22 01:41 | 34.58112 | -117.30438 | 30048 ft | 559 kts | 52° |
| 2026-04-22 01:41 | 34.60368 | -117.26628 | 30524 ft | 560 kts | 52° |
| 2026-04-22 01:42 | 34.62637 | -117.22791 | 31026 ft | 559 kts | 53° |
| 2026-04-22 01:42 | 34.64887 | -117.18980 | 31595 ft | 557 kts | 52° |
| 2026-04-22 01:42 | 34.67132 | -117.15173 | 32216 ft | 554 kts | 52° |
| 2026-04-22 01:42 | 34.69364 | -117.11386 | 32779 ft | 552 kts | 53° |
| 2026-04-22 01:43 | 34.71574 | -117.07631 | 33307 ft | 550 kts | 53° |
| 2026-04-22 01:43 | 34.73794 | -117.03854 | 33845 ft | 548 kts | 53° |
| 2026-04-22 01:43 | 34.76008 | -117.00085 | 34344 ft | 547 kts | 53° |
| 2026-04-22 01:43 | 34.78198 | -116.96353 | 34815 ft | 547 kts | 53° |
| 2026-04-22 01:44 | 34.80397 | -116.92600 | 35362 ft | 544 kts | 52° |
| 2026-04-22 01:44 | 34.82590 | -116.88854 | 35951 ft | 540 kts | 52° |
| 2026-04-22 01:44 | 34.84041 | -116.86373 | 36325 ft | 537 kts | 53° |